Time;durP1;ratioP1;P1;durP2;ratioP2;P2;SDS_P1;SDS_P2;PMS_P1;PMS_P2;Temp;Humidity;BMP_temperature;BMP_pressure;BME280_temperature;BME280_humidity;BME280_pressure;Samples;Min_cycle;Max_cycle;Signal;HPM_P1;HPM_P2
2023/04/09 00:01:41;;;;;;;69.43;54.35;;;8.60;99.90;;;;;;5056520;28;20044;-46
2023/04/09 00:04:07;;;;;;;64.78;53.20;;;8.60;99.90;;;;;;5057427;28;20153;-41
2023/04/09 00:06:32;;;;;;;63.45;51.60;;;8.70;99.90;;;;;;5056874;28;20059;-45
2023/04/09 00:08:58;;;;;;;67.93;52.55;;;8.70;99.90;;;;;;5056881;28;20036;-47
2023/04/09 00:11:24;;;;;;;63.55;51.20;;;8.70;99.90;;;;;;5056183;28;20052;-37
2023/04/09 00:13:50;;;;;;;64.22;51.80;;;8.70;99.90;;;;;;5069885;28;20079;-46
2023/04/09 00:16:15;;;;;;;58.92;46.22;;;8.70;99.90;;;;;;5063225;28;20052;-39
2023/04/09 00:18:41;;;;;;;62.03;49.03;;;8.70;99.90;;;;;;5046315;28;20041;-47
2023/04/09 00:21:07;;;;;;;51.58;42.33;;;8.70;99.90;;;;;;5075278;28;20044;-44
2023/04/09 00:23:34;;;;;;;53.42;42.63;;;8.80;99.90;;;;;;5064424;28;20086;-40
2023/04/09 00:25:59;;;;;;;53.08;41.22;;;8.80;99.90;;;;;;5076028;28;20181;-39
2023/04/09 00:28:25;;;;;;;53.55;41.55;;;8.80;99.90;;;;;;5076930;28;20871;-42
2023/04/09 00:30:51;;;;;;;50.35;41.97;;;8.80;99.90;;;;;;5069490;28;20041;-41
2023/04/09 00:33:16;;;;;;;51.80;42.80;;;8.80;99.90;;;;;;5058246;28;20116;-42
2023/04/09 00:35:42;;;;;;;48.35;41.15;;;8.80;99.90;;;;;;5056362;28;20406;-45
2023/04/09 00:38:08;;;;;;;49.80;42.40;;;8.90;99.90;;;;;;5070074;28;20087;-39
2023/04/09 00:40:33;;;;;;;55.88;44.55;;;8.80;99.90;;;;;;5075882;28;20483;-38
2023/04/09 00:42:59;;;;;;;59.70;45.30;;;8.80;99.90;;;;;;5063721;28;20060;-39
2023/04/09 00:45:25;;;;;;;53.15;44.03;;;8.80;99.90;;;;;;5056039;28;20564;-41
2023/04/09 00:47:52;;;;;;;57.33;43.90;;;8.80;99.90;;;;;;5056820;28;20048;-41
2023/04/09 00:50:18;;;;;;;55.53;45.63;;;8.80;99.90;;;;;;5075468;28;20044;-46
2023/04/09 00:52:44;;;;;;;55.55;43.97;;;8.80;99.90;;;;;;5076883;28;20506;-48
2023/04/09 00:55:11;;;;;;;59.00;46.03;;;8.70;99.90;;;;;;5076905;28;20476;-38
2023/04/09 00:57:36;;;;;;;62.90;47.85;;;8.70;99.90;;;;;;5077178;28;20055;-45
2023/04/09 01:00:03;;;;;;;65.80;50.20;;;8.70;99.90;;;;;;5074656;28;20071;-46
2023/04/09 01:02:29;;;;;;;64.03;48.22;;;8.70;99.90;;;;;;5076270;28;20104;-47
2023/04/09 01:04:55;;;;;;;65.72;48.88;;;8.70;99.90;;;;;;5037992;28;20083;-35
2023/04/09 01:07:42;;;;;;;70.78;51.15;;;8.70;99.90;;;;;;5054833;28;20144;-46
2023/04/09 01:10:27;;;;;;;70.22;51.85;;;8.70;99.90;;;;;;5029961;28;20357;-45
2023/04/09 01:13:06;;;;;;;71.22;51.40;;;8.70;99.90;;;;;;5073600;28;20334;-43
2023/04/09 01:15:37;;;;;;;72.25;52.72;;;8.70;99.90;;;;;;5075698;28;20043;-39
2023/04/09 01:18:28;;;;;;;70.60;50.88;;;8.70;99.90;;;;;;5051083;28;20094;-43
2023/04/09 01:20:58;;;;;;;68.80;51.55;;;8.70;99.90;;;;;;5074866;28;20482;-42
2023/04/09 01:23:26;;;;;;;67.28;52.50;;;8.70;99.90;;;;;;5075739;28;20053;-42
2023/04/09 01:26:12;;;;;;;71.85;50.83;;;8.70;99.90;;;;;;5057070;28;20445;-40
2023/04/09 01:28:47;;;;;;;71.18;54.53;;;8.70;99.90;;;;;;5057425;28;20502;-41
2023/04/09 01:31:16;;;;;;;76.10;53.28;;;8.70;99.90;;;;;;5074314;28;20091;-39
2023/04/09 01:33:43;;;;;;;78.80;58.03;;;8.70;99.90;;;;;;5057512;28;20067;-42
2023/04/09 01:36:10;;;;;;;88.68;62.72;;;8.60;99.90;;;;;;5056051;28;20133;-42
2023/04/09 01:38:38;;;;;;;88.20;61.17;;;8.60;99.90;;;;;;5055659;28;20041;-35
2023/04/09 01:41:05;;;;;;;91.45;62.47;;;8.60;99.90;;;;;;5053935;28;20048;-40
2023/04/09 01:43:33;;;;;;;90.43;62.20;;;8.60;99.90;;;;;;5054223;28;20063;-37
2023/04/09 01:46:01;;;;;;;91.57;60.58;;;8.50;99.90;;;;;;5054794;28;20121;-47
2023/04/09 01:48:29;;;;;;;90.15;59.08;;;8.50;99.90;;;;;;5059545;28;20051;-38
2023/04/09 01:50:57;;;;;;;89.28;59.35;;;8.40;99.90;;;;;;5051378;28;20528;-35
2023/04/09 01:53:23;;;;;;;88.30;57.53;;;8.40;99.90;;;;;;5076233;28;20122;-45
2023/04/09 01:55:48;;;;;;;84.82;58.65;;;8.40;99.90;;;;;;5078305;28;20048;-40
2023/04/09 01:58:14;;;;;;;86.93;59.28;;;8.40;99.90;;;;;;5075877;28;20087;-41
2023/04/09 02:00:46;;;;;;;86.57;58.20;;;8.40;99.90;;;;;;5040288;28;20099;-42
2023/04/09 02:03:25;;;;;;;81.57;56.15;;;8.30;99.90;;;;;;5035966;28;20480;-44
2023/04/09 02:06:04;;;;;;;80.82;55.40;;;8.30;99.90;;;;;;5054120;28;20052;-43
2023/04/09 02:08:33;;;;;;;83.47;55.13;;;8.30;99.90;;;;;;5054063;28;20131;-40
2023/04/09 02:11:02;;;;;;;78.13;54.00;;;8.30;99.90;;;;;;5053442;28;20141;-42
2023/04/09 02:13:31;;;;;;;84.28;55.97;;;8.30;99.90;;;;;;5054887;28;20063;-47
2023/04/09 02:15:58;;;;;;;78.88;53.30;;;8.30;99.90;;;;;;5054522;28;20056;-36
2023/04/09 02:18:28;;;;;;;75.97;51.70;;;8.30;99.90;;;;;;5053427;28;20430;-46
2023/04/09 02:20:55;;;;;;;77.68;51.53;;;8.30;99.90;;;;;;5057754;28;20134;-41
2023/04/09 02:23:21;;;;;;;75.70;53.67;;;8.30;99.90;;;;;;5062954;28;20052;-38
2023/04/09 02:25:47;;;;;;;73.15;49.35;;;8.30;99.90;;;;;;5068233;28;20071;-45
2023/04/09 02:28:13;;;;;;;78.88;51.63;;;8.20;99.90;;;;;;5054158;28;20056;-44
2023/04/09 02:30:39;;;;;;;74.97;49.05;;;8.20;99.90;;;;;;5053304;28;20045;-45
2023/04/09 02:33:05;;;;;;;72.28;50.03;;;8.20;99.90;;;;;;5053951;28;20082;-42
2023/04/09 02:35:31;;;;;;;71.45;50.33;;;8.20;99.90;;;;;;5035637;28;20060;-42
2023/04/09 02:37:57;;;;;;;71.30;47.63;;;8.20;99.90;;;;;;5036132;28;20447;-39
2023/04/09 02:40:22;;;;;;;73.93;49.08;;;8.20;99.90;;;;;;5039978;28;20450;-45
2023/04/09 02:42:49;;;;;;;85.18;54.55;;;8.20;99.90;;;;;;5074529;28;20612;-41
2023/04/09 02:45:15;;;;;;;69.45;48.40;;;8.20;99.90;;;;;;5073858;28;20082;-42
2023/04/09 02:47:41;;;;;;;79.13;52.60;;;8.10;99.90;;;;;;5064016;28;20144;-41
2023/04/09 02:50:07;;;;;;;73.18;49.08;;;8.10;99.90;;;;;;5072191;28;20485;-36
2023/04/09 02:52:32;;;;;;;81.35;51.15;;;8.10;99.90;;;;;;5074247;28;20066;-48
2023/04/09 02:54:58;;;;;;;75.20;49.45;;;8.10;99.90;;;;;;5070550;28;20048;-41
2023/04/09 02:57:24;;;;;;;78.53;51.13;;;8.10;99.90;;;;;;5061955;28;20049;-49
2023/04/09 02:59:49;;;;;;;74.30;49.33;;;8.10;99.90;;;;;;5072674;28;20048;-47
2023/04/09 03:02:15;;;;;;;81.20;53.47;;;8.00;99.90;;;;;;5074010;28;20102;-42
2023/04/09 03:04:41;;;;;;;78.20;50.70;;;8.00;99.90;;;;;;5073416;28;20504;-48
2023/04/09 03:07:06;;;;;;;78.05;51.88;;;8.00;99.90;;;;;;5074347;28;20044;-36
2023/04/09 03:09:32;;;;;;;81.05;51.20;;;8.00;99.90;;;;;;5056448;28;20147;-45
2023/04/09 03:11:58;;;;;;;76.40;48.40;;;8.00;99.90;;;;;;5053133;28;20515;-42
2023/04/09 03:14:23;;;;;;;73.32;49.30;;;8.00;99.90;;;;;;5057633;28;20044;-39
2023/04/09 03:16:49;;;;;;;75.72;49.22;;;8.00;99.90;;;;;;5063795;28;20411;-46
2023/04/09 03:19:15;;;;;;;80.45;53.20;;;8.00;99.90;;;;;;5070739;28;20291;-46
2023/04/09 03:21:41;;;;;;;70.20;47.08;;;8.00;99.90;;;;;;5073347;28;20055;-38
2023/04/09 03:24:07;;;;;;;70.07;47.08;;;8.00;99.90;;;;;;5074062;28;20275;-37
2023/04/09 03:26:35;;;;;;;71.10;46.20;;;7.90;99.90;;;;;;5062877;28;20048;-43
2023/04/09 03:29:04;;;;;;;69.70;46.33;;;8.00;99.90;;;;;;5058666;28;20555;-38
2023/04/09 03:31:30;;;;;;;75.75;48.10;;;8.00;99.90;;;;;;5076684;28;20106;-40
2023/04/09 03:33:56;;;;;;;76.75;48.15;;;8.00;99.90;;;;;;5057062;28;20494;-37
2023/04/09 03:36:22;;;;;;;75.60;47.83;;;7.90;99.90;;;;;;5051460;28;20082;-43
2023/04/09 03:38:48;;;;;;;73.00;46.80;;;7.90;99.90;;;;;;5077872;28;20171;-39
2023/04/09 03:41:14;;;;;;;71.63;47.28;;;7.90;99.90;;;;;;5076972;28;20040;-35
2023/04/09 03:43:40;;;;;;;76.90;47.10;;;7.90;99.90;;;;;;5077831;28;20534;-43
2023/04/09 03:46:15;;;;;;;70.03;45.63;;;7.90;99.90;;;;;;5065073;28;20052;-38
2023/04/09 03:48:41;;;;;;;67.88;45.63;;;7.90;99.90;;;;;;5066184;28;20047;-46
2023/04/09 03:51:11;;;;;;;65.50;42.83;;;7.90;99.90;;;;;;5045262;28;20478;-38
2023/04/09 03:53:37;;;;;;;57.60;38.45;;;7.80;99.90;;;;;;5060030;28;20131;-46
2023/04/09 03:56:03;;;;;;;54.60;37.67;;;7.90;99.90;;;;;;5076319;28;20487;-38
2023/04/09 03:58:29;;;;;;;61.22;37.88;;;7.90;99.90;;;;;;5046760;28;20056;-42
2023/04/09 04:00:54;;;;;;;59.75;39.20;;;7.80;99.90;;;;;;5067688;28;20036;-42
2023/04/09 04:03:20;;;;;;;63.33;39.08;;;7.90;99.90;;;;;;5057880;28;20106;-48
2023/04/09 04:05:46;;;;;;;64.45;41.72;;;7.80;99.90;;;;;;5058472;28;20049;-43
2023/04/09 04:08:11;;;;;;;62.30;40.55;;;7.90;99.90;;;;;;5083838;22;20048;-47
2023/04/09 04:10:37;;;;;;;57.22;38.15;;;7.90;99.90;;;;;;5055878;28;20048;-48
2023/04/09 04:13:05;;;;;;;59.17;38.67;;;7.90;99.90;;;;;;5057363;28;20080;-44
2023/04/09 04:15:30;;;;;;;60.80;39.38;;;7.90;99.90;;;;;;5056958;28;20133;-48
2023/04/09 04:17:56;;;;;;;55.22;37.65;;;7.90;99.90;;;;;;5063897;28;20058;-45
2023/04/09 04:20:21;;;;;;;58.65;39.45;;;7.90;99.90;;;;;;5076556;28;20155;-40
2023/04/09 04:22:47;;;;;;;64.88;39.65;;;7.90;99.90;;;;;;5071164;28;20091;-47
2023/04/09 04:25:13;;;;;;;63.55;40.60;;;7.90;99.90;;;;;;5057239;28;20087;-44
2023/04/09 04:27:42;;;;;;;68.00;41.60;;;7.90;99.90;;;;;;5064623;28;20088;-42
2023/04/09 04:30:08;;;;;;;62.85;43.25;;;7.90;99.90;;;;;;5075846;28;20040;-43
2023/04/09 04:32:34;;;;;;;62.20;42.63;;;7.90;99.90;;;;;;5057638;28;20055;-36
2023/04/09 04:34:59;;;;;;;60.90;41.10;;;7.90;99.90;;;;;;5057960;28;20048;-41
2023/04/09 04:37:25;;;;;;;60.80;40.88;;;7.90;99.90;;;;;;5077156;28;20075;-41
2023/04/09 04:39:51;;;;;;;63.22;41.78;;;7.90;99.90;;;;;;5075295;28;20490;-44
2023/04/09 04:42:17;;;;;;;60.95;39.92;;;7.90;99.90;;;;;;5057800;28;20506;-44
2023/04/09 04:44:43;;;;;;;64.97;40.75;;;7.90;99.90;;;;;;5076008;28;20546;-42
2023/04/09 04:47:09;;;;;;;58.70;40.88;;;7.90;99.90;;;;;;5071262;28;20572;-37
2023/04/09 04:49:34;;;;;;;58.70;40.10;;;7.90;99.90;;;;;;5055395;28;20368;-44
2023/04/09 04:52:00;;;;;;;64.53;40.53;;;7.90;99.90;;;;;;5056361;28;20045;-41
2023/04/09 04:54:26;;;;;;;53.20;39.03;;;7.90;99.90;;;;;;5038356;28;20048;-36
2023/04/09 04:56:51;;;;;;;60.22;40.40;;;7.90;99.90;;;;;;5055988;28;20051;-41
2023/04/09 04:59:17;;;;;;;58.65;39.90;;;7.90;99.90;;;;;;5056384;28;20051;-49
2023/04/09 05:01:43;;;;;;;55.85;37.67;;;7.90;99.90;;;;;;5055708;28;20084;-42
2023/04/09 05:04:08;;;;;;;55.80;38.92;;;7.90;99.90;;;;;;5056570;28;20398;-42
2023/04/09 05:06:34;;;;;;;57.40;38.63;;;7.90;99.90;;;;;;5055928;28;20048;-40
2023/04/09 05:09:00;;;;;;;55.47;38.75;;;7.90;99.90;;;;;;5056032;28;20083;-38
2023/04/09 05:11:26;;;;;;;50.55;36.45;;;7.90;99.90;;;;;;5055036;28;20098;-39
2023/04/09 05:13:52;;;;;;;50.90;35.88;;;7.90;99.90;;;;;;5038314;28;20428;-42
2023/04/09 05:16:19;;;;;;;50.58;36.15;;;7.90;99.90;;;;;;5056012;28;20056;-45
2023/04/09 05:18:46;;;;;;;52.83;36.75;;;7.90;99.90;;;;;;5056645;28;20048;-36
2023/04/09 05:21:11;;;;;;;53.88;36.63;;;7.80;99.90;;;;;;5054272;28;20614;-46
2023/04/09 05:23:37;;;;;;;56.80;36.90;;;7.90;99.90;;;;;;5055922;28;20052;-47
2023/04/09 05:26:03;;;;;;;56.78;37.20;;;7.80;99.90;;;;;;5055450;28;20080;-44
2023/04/09 05:28:28;;;;;;;48.92;36.78;;;7.80;99.90;;;;;;5037610;28;20083;-43
2023/04/09 05:30:54;;;;;;;47.03;36.00;;;7.90;99.90;;;;;;5055765;28;20119;-35
2023/04/09 05:33:20;;;;;;;45.22;35.25;;;7.80;99.90;;;;;;5056271;28;20088;-48
2023/04/09 05:35:45;;;;;;;51.10;36.75;;;7.90;99.90;;;;;;5037498;28;20151;-35
2023/04/09 05:38:12;;;;;;;55.08;36.03;;;7.90;99.90;;;;;;5055440;28;20048;-47
2023/04/09 05:40:38;;;;;;;50.15;37.10;;;7.90;99.90;;;;;;5037313;28;20048;-44
2023/04/09 05:43:04;;;;;;;52.92;37.15;;;7.90;99.90;;;;;;5055775;28;20568;-39
2023/04/09 05:45:30;;;;;;;47.45;35.03;;;7.90;99.90;;;;;;5056014;28;20044;-39
2023/04/09 05:47:56;;;;;;;50.42;34.45;;;7.90;99.90;;;;;;5037774;28;20472;-41
2023/04/09 05:50:22;;;;;;;50.25;37.03;;;7.90;99.90;;;;;;5055047;28;20127;-37
2023/04/09 05:52:47;;;;;;;48.10;36.65;;;7.90;99.90;;;;;;5055233;28;20581;-46
2023/04/09 05:55:13;;;;;;;50.35;36.05;;;7.90;99.90;;;;;;5055101;28;20040;-39
2023/04/09 05:57:39;;;;;;;48.25;34.65;;;7.90;99.90;;;;;;5056046;28;20048;-40
2023/04/09 06:00:05;;;;;;;50.42;36.22;;;7.90;99.90;;;;;;5054565;28;20045;-44
2023/04/09 06:02:31;;;;;;;42.60;33.45;;;7.90;99.90;;;;;;5070106;28;20469;-42
2023/04/09 06:04:56;;;;;;;46.38;33.00;;;7.90;99.90;;;;;;5075702;28;20444;-43
2023/04/09 06:07:22;;;;;;;56.53;38.10;;;7.90;99.90;;;;;;5075162;28;20461;-35
2023/04/09 06:09:48;;;;;;;52.05;35.78;;;8.00;99.90;;;;;;5055475;28;20525;-42
2023/04/09 06:12:14;;;;;;;48.15;35.40;;;8.00;99.90;;;;;;5068328;28;20577;-41
2023/04/09 06:14:40;;;;;;;49.75;36.30;;;8.00;99.90;;;;;;5070010;28;20052;-38
2023/04/09 06:17:06;;;;;;;48.83;37.08;;;8.00;99.90;;;;;;5056180;28;20461;-44
2023/04/09 06:19:32;;;;;;;48.10;35.38;;;8.00;99.90;;;;;;5074243;28;20050;-39
2023/04/09 06:21:57;;;;;;;47.42;35.10;;;8.00;99.90;;;;;;5075028;28;20044;-40
2023/04/09 06:24:23;;;;;;;47.92;35.60;;;8.00;99.90;;;;;;5074615;28;20044;-38
2023/04/09 06:26:48;;;;;;;48.50;36.22;;;8.00;99.90;;;;;;5074901;28;20051;-45
2023/04/09 06:29:14;;;;;;;50.33;36.15;;;8.00;99.90;;;;;;5075167;28;20512;-45
2023/04/09 06:31:40;;;;;;;48.40;36.38;;;7.90;99.90;;;;;;5073898;28;20044;-40
2023/04/09 06:34:06;;;;;;;51.67;38.25;;;8.00;99.90;;;;;;5043906;28;20044;-42
2023/04/09 06:36:32;;;;;;;48.75;37.72;;;8.00;99.90;;;;;;5074932;28;20530;-39
2023/04/09 06:38:58;;;;;;;47.47;36.50;;;8.00;99.90;;;;;;5041271;28;20044;-42
2023/04/09 06:41:25;;;;;;;50.60;36.40;;;8.00;99.90;;;;;;5066562;28;20059;-39
2023/04/09 06:43:51;;;;;;;50.03;36.55;;;8.00;99.90;;;;;;5074628;28;20406;-37
2023/04/09 06:46:18;;;;;;;54.47;36.92;;;8.00;99.90;;;;;;5074715;28;20062;-42
2023/04/09 06:48:45;;;;;;;50.85;37.05;;;8.00;99.90;;;;;;5055460;28;20087;-43
2023/04/09 06:51:11;;;;;;;53.92;36.22;;;8.00;99.90;;;;;;5035384;28;20052;-46
2023/04/09 06:53:37;;;;;;;52.17;37.00;;;8.00;99.90;;;;;;5062884;28;20776;-43
2023/04/09 06:56:04;;;;;;;56.33;37.22;;;7.90;99.90;;;;;;5061094;28;20135;-42
2023/04/09 06:58:29;;;;;;;50.58;37.60;;;8.00;99.90;;;;;;5074686;28;20541;-44
2023/04/09 07:00:55;;;;;;;55.53;37.55;;;8.00;99.90;;;;;;5073443;28;20048;-42
2023/04/09 07:03:21;;;;;;;51.83;37.22;;;8.00;99.90;;;;;;5074168;28;20050;-39
2023/04/09 07:05:47;;;;;;;51.15;37.92;;;8.00;99.90;;;;;;5077749;28;20565;-40
2023/04/09 07:08:13;;;;;;;49.35;35.60;;;8.00;99.90;;;;;;5071956;28;20515;-48
2023/04/09 07:10:39;;;;;;;54.55;37.90;;;8.00;99.90;;;;;;5056972;28;20165;-44
2023/04/09 07:13:04;;;;;;;56.60;39.65;;;8.00;99.90;;;;;;5078248;28;20087;-45
2023/04/09 07:15:30;;;;;;;53.65;38.05;;;8.00;99.90;;;;;;5043637;28;20128;-42
2023/04/09 07:17:56;;;;;;;51.13;37.30;;;8.00;99.90;;;;;;5062956;28;20116;-39
2023/04/09 07:20:22;;;;;;;55.38;39.15;;;8.00;99.90;;;;;;5045347;28;20048;-43
2023/04/09 07:22:48;;;;;;;50.65;36.03;;;8.00;99.90;;;;;;5078112;28;20469;-45
2023/04/09 07:25:14;;;;;;;56.30;39.05;;;8.00;99.90;;;;;;5077610;28;20165;-43
2023/04/09 07:27:42;;;;;;;53.97;39.72;;;8.00;99.90;;;;;;5078877;28;20051;-44
2023/04/09 07:30:09;;;;;;;56.65;39.30;;;8.10;99.90;;;;;;5064676;28;20044;-47
2023/04/09 07:32:36;;;;;;;58.05;39.00;;;8.10;99.90;;;;;;5053123;28;20060;-39
2023/04/09 07:35:03;;;;;;;51.17;37.97;;;8.10;99.90;;;;;;5078157;28;20482;-39
2023/04/09 07:37:30;;;;;;;58.70;40.03;;;8.10;99.90;;;;;;5077534;28;20047;-40
2023/04/09 07:39:55;;;;;;;54.30;37.75;;;8.20;99.90;;;;;;5075711;28;20135;-42
2023/04/09 07:42:21;;;;;;;55.53;38.22;;;8.20;99.90;;;;;;5077827;28;20423;-38
2023/04/09 07:44:47;;;;;;;55.15;40.65;;;8.20;99.90;;;;;;5077950;28;20047;-38
2023/04/09 07:47:13;;;;;;;54.92;38.92;;;8.20;99.90;;;;;;5071563;28;20147;-49
2023/04/09 07:49:39;;;;;;;57.05;39.17;;;8.20;99.90;;;;;;5056709;28;20048;-47
2023/04/09 07:52:05;;;;;;;53.35;39.42;;;8.20;99.90;;;;;;5057892;28;20044;-47
2023/04/09 07:54:32;;;;;;;52.30;39.60;;;8.30;99.90;;;;;;5038924;28;20134;-39
2023/04/09 07:56:58;;;;;;;50.58;37.97;;;8.30;99.90;;;;;;5054672;28;20612;-46
2023/04/09 07:59:26;;;;;;;55.72;40.33;;;8.30;99.90;;;;;;5048948;28;20083;-39
2023/04/09 08:01:52;;;;;;;50.75;38.75;;;8.40;99.90;;;;;;5058211;28;20048;-40
2023/04/09 08:04:17;;;;;;;58.10;40.38;;;8.40;99.90;;;;;;5057840;28;20457;-47
2023/04/09 08:06:48;;;;;;;55.30;39.90;;;8.40;99.90;;;;;;5057923;28;20410;-46
2023/04/09 08:09:15;;;;;;;53.42;39.13;;;8.40;99.90;;;;;;5056293;28;20070;-42
2023/04/09 08:11:41;;;;;;;53.80;39.67;;;8.50;99.90;;;;;;5058737;28;20048;-39
2023/04/09 08:14:08;;;;;;;58.03;41.95;;;8.50;99.90;;;;;;5039941;28;20048;-42
2023/04/09 08:16:33;;;;;;;52.58;40.25;;;8.60;99.90;;;;;;5039548;28;20131;-42
2023/04/09 08:18:59;;;;;;;53.80;39.25;;;8.60;99.90;;;;;;5038168;28;20052;-41
2023/04/09 08:21:25;;;;;;;55.72;41.05;;;8.60;99.90;;;;;;5056688;28;20121;-38
2023/04/09 08:23:51;;;;;;;52.10;38.92;;;8.60;99.90;;;;;;5058371;28;20463;-41
2023/04/09 08:26:16;;;;;;;53.42;39.22;;;8.60;99.90;;;;;;5057746;28;20052;-43
2023/04/09 08:28:42;;;;;;;55.05;39.67;;;8.60;99.90;;;;;;5058040;28;20041;-38
2023/04/09 08:31:08;;;;;;;55.78;39.30;;;8.60;99.90;;;;;;5039425;28;20149;-43
2023/04/09 08:33:34;;;;;;;50.33;37.58;;;8.70;99.90;;;;;;5062215;28;20048;-41
2023/04/09 08:36:00;;;;;;;50.35;37.70;;;8.70;99.90;;;;;;5059613;28;20057;-41
2023/04/09 08:38:26;;;;;;;56.05;40.47;;;8.80;99.90;;;;;;5058442;28;20048;-37
2023/04/09 08:40:51;;;;;;;51.80;38.50;;;8.80;99.90;;;;;;5057423;28;20036;-40
2023/04/09 08:43:21;;;;;;;51.03;38.60;;;8.80;99.90;;;;;;5066875;28;20460;-47
2023/04/09 08:45:47;;;;;;;50.08;38.03;;;8.90;99.90;;;;;;5056582;28;20498;-41
2023/04/09 08:48:13;;;;;;;49.28;36.75;;;8.90;99.90;;;;;;5038074;28;20071;-45
2023/04/09 08:50:39;;;;;;;47.08;36.40;;;8.90;99.90;;;;;;5054649;28;20077;-48
2023/04/09 08:53:06;;;;;;;48.53;36.22;;;8.90;99.90;;;;;;5055923;28;20060;-45
2023/04/09 08:55:36;;;;;;;46.45;35.90;;;9.00;99.90;;;;;;5045403;28;20140;-46
2023/04/09 08:58:09;;;;;;;50.55;36.67;;;9.00;99.90;;;;;;5052905;28;20415;-38
2023/04/09 09:00:35;;;;;;;;;;;9.00;99.90;;;;;;5049646;28;20475;-42
2023/04/09 09:03:05;;;;;;;46.03;35.50;;;9.00;99.90;;;;;;5043478;28;19993;-47
2023/04/09 09:05:39;;;;;;;44.72;34.33;;;9.00;99.90;;;;;;5056057;28;20139;-36
2023/04/09 09:08:09;;;;;;;43.50;32.17;;;9.00;99.90;;;;;;5057852;28;20874;-44
2023/04/09 09:10:40;;;;;;;45.83;35.38;;;9.00;99.90;;;;;;5047616;28;20426;-43
2023/04/09 09:13:18;;;;;;;43.35;33.25;;;9.10;99.90;;;;;;5049468;28;20036;-36
2023/04/09 09:15:46;;;;;;;43.83;34.72;;;9.10;99.90;;;;;;5030461;28;20233;-37
2023/04/09 09:18:12;;;;;;;45.55;36.13;;;9.10;99.90;;;;;;5050736;28;20123;-42
2023/04/09 09:20:38;;;;;;;45.65;33.90;;;9.10;99.90;;;;;;5037380;28;20105;-45
2023/04/09 09:23:04;;;;;;;46.13;34.45;;;9.20;99.90;;;;;;5055788;28;20499;-45
2023/04/09 09:25:36;;;;;;;44.00;34.05;;;9.20;99.90;;;;;;5055153;28;20094;-43
2023/04/09 09:28:10;;;;;;;49.58;36.05;;;9.20;99.90;;;;;;5048288;28;20052;-38
2023/04/09 09:30:37;;;;;;;44.97;35.13;;;9.30;99.90;;;;;;5043620;28;20117;-39
2023/04/09 09:33:09;;;;;;;45.33;34.95;;;9.30;99.90;;;;;;5058272;28;20048;-42
2023/04/09 09:35:50;;;;;;;45.15;35.00;;;9.40;99.90;;;;;;5056126;28;20048;-39
2023/04/09 09:38:17;;;;;;;40.20;33.55;;;9.40;99.90;;;;;;5048684;28;20044;-41
2023/04/09 09:40:43;;;;;;;43.15;35.97;;;9.50;99.90;;;;;;5049192;28;20556;-42
2023/04/09 09:43:08;;;;;;;49.40;36.58;;;9.60;99.90;;;;;;5047000;28;20554;-45
2023/04/09 09:45:35;;;;;;;43.60;35.15;;;9.70;99.90;;;;;;5034896;28;20224;-43
2023/04/09 09:48:02;;;;;;;44.97;34.33;;;9.70;99.90;;;;;;5043670;28;20551;-39
2023/04/09 09:50:30;;;;;;;43.33;35.08;;;9.70;99.90;;;;;;5048422;28;20052;-38
2023/04/09 09:53:02;;;;;;;42.88;35.08;;;9.80;99.90;;;;;;5055474;28;20058;-46
2023/04/09 09:55:31;;;;;;;46.08;34.75;;;9.80;99.90;;;;;;5055728;28;20079;-43
2023/04/09 09:58:00;;;;;;;42.17;33.92;;;9.80;99.90;;;;;;5037403;28;20049;-44
2023/04/09 10:00:27;;;;;;;41.00;33.67;;;9.90;99.90;;;;;;5047700;28;20274;-52
2023/04/09 10:03:00;;;;;;;43.10;35.25;;;9.90;99.90;;;;;;5041871;28;20040;-44
2023/04/09 10:05:26;;;;;;;39.60;32.15;;;10.00;99.90;;;;;;5053935;28;20048;-45
2023/04/09 10:08:03;;;;;;;39.75;32.53;;;10.10;99.90;;;;;;5054502;28;20066;-41
2023/04/09 10:10:30;;;;;;;40.17;31.55;;;10.30;99.90;;;;;;5050816;28;20095;-49
2023/04/09 10:12:57;;;;;;;43.03;33.72;;;10.50;99.90;;;;;;5050355;28;20047;-47
2023/04/09 10:15:23;;;;;;;40.80;32.95;;;10.60;99.90;;;;;;5053345;28;20095;-41
2023/04/09 10:17:49;;;;;;;38.28;32.10;;;10.80;99.90;;;;;;5054940;28;20303;-38
2023/04/09 10:20:21;;;;;;;40.78;32.42;;;11.00;99.90;;;;;;5053502;28;20049;-43
2023/04/09 10:22:50;;;;;;;38.80;33.77;;;11.40;99.90;;;;;;5054672;28;20515;-44
2023/04/09 10:25:16;;;;;;;39.75;32.33;;;11.70;99.90;;;;;;5054554;28;20669;-47
2023/04/09 10:27:47;;;;;;;40.00;32.70;;;11.80;99.90;;;;;;5053270;28;20059;-40
2023/04/09 10:30:33;;;;;;;42.83;32.10;;;11.90;99.90;;;;;;5048882;28;20101;-42
2023/04/09 10:33:25;;;;;;;35.08;30.38;;;12.10;99.90;;;;;;5052562;28;20044;-38
2023/04/09 10:35:53;;;;;;;38.55;32.17;;;12.50;99.90;;;;;;5051338;28;20481;-39
2023/04/09 10:38:34;;;;;;;37.92;32.22;;;12.70;99.90;;;;;;5055196;28;20052;-43
2023/04/09 10:41:24;;;;;;;34.28;30.45;;;12.80;99.90;;;;;;5052799;28;20048;-49
2023/04/09 10:43:50;;;;;;;32.83;28.88;;;12.90;99.90;;;;;;5053978;28;20127;-40
2023/04/09 10:46:28;;;;;;;34.63;30.83;;;12.90;99.90;;;;;;5054446;28;20090;-45
2023/04/09 10:49:07;;;;;;;35.97;31.15;;;12.90;99.90;;;;;;5048023;28;20044;-38
2023/04/09 10:51:40;;;;;;;34.28;30.58;;;13.10;99.90;;;;;;5052435;28;20063;-47
2023/04/09 10:54:26;;;;;;;33.60;29.23;;;13.20;99.90;;;;;;5053276;28;20052;-43
2023/04/09 10:57:07;;;;;;;32.20;28.30;;;13.30;99.90;;;;;;5054438;28;20053;-46
2023/04/09 10:59:37;;;;;;;36.13;31.92;;;13.10;99.90;;;;;;5052876;28;20526;-42
2023/04/09 11:02:29;;;;;;;34.92;30.50;;;13.00;99.90;;;;;;5071442;28;20047;-47
2023/04/09 11:05:16;;;;;;;33.60;29.60;;;13.10;99.90;;;;;;4972060;28;20167;-41
2023/04/09 11:07:50;;;;;;;34.00;30.30;;;13.50;99.90;;;;;;4972576;28;20066;-49
2023/04/09 11:10:16;;;;;;;34.60;30.40;;;13.70;99.90;;;;;;4957673;28;20058;-43
2023/04/09 11:12:42;;;;;;;32.90;27.77;;;13.70;99.90;;;;;;4948305;28;20465;-47
2023/04/09 11:15:16;;;;;;;33.35;29.48;;;13.70;99.90;;;;;;4965753;28;20058;-46
2023/04/09 11:17:42;;;;;;;33.25;29.15;;;13.60;99.90;;;;;;4957002;28;20677;-47
2023/04/09 11:20:09;;;;;;;32.47;28.63;;;13.50;99.90;;;;;;4965861;28;20057;-43
2023/04/09 11:22:35;;;;;;;31.70;28.33;;;13.50;99.90;;;;;;4951242;28;20118;-39
2023/04/09 11:25:01;;;;;;;30.52;27.23;;;13.60;99.90;;;;;;4951014;28;20152;-40
2023/04/09 11:27:27;;;;;;;32.67;29.10;;;13.50;99.90;;;;;;4951901;28;20592;-39
2023/04/09 11:29:55;;;;;;;31.60;28.20;;;13.60;99.90;;;;;;4950027;28;20058;-42
2023/04/09 11:32:21;;;;;;;31.38;27.85;;;13.70;99.90;;;;;;4952103;28;20043;-41
2023/04/09 11:34:47;;;;;;;31.17;27.92;;;13.70;99.90;;;;;;4952189;28;20058;-41
2023/04/09 11:37:16;;;;;;;33.55;29.95;;;13.80;99.90;;;;;;4946262;28;20063;-46
2023/04/09 11:39:45;;;;;;;35.58;29.15;;;13.80;99.90;;;;;;4943791;28;20046;-51
2023/04/09 11:42:14;;;;;;;30.23;26.98;;;14.10;99.90;;;;;;4979801;28;21075;-36
2023/04/09 11:44:40;;;;;;;30.30;27.02;;;14.30;99.90;;;;;;5047322;28;20053;-41
2023/04/09 11:47:10;;;;;;;30.52;26.55;;;14.40;99.90;;;;;;5050858;28;20532;-45
2023/04/09 11:49:36;;;;;;;29.90;26.05;;;14.40;99.90;;;;;;5049718;28;20045;-38
2023/04/09 11:52:02;;;;;;;29.25;25.50;;;14.30;99.90;;;;;;5054912;28;20040;-37
2023/04/09 11:54:32;;;;;;;28.08;25.08;;;14.40;99.90;;;;;;5056137;28;20519;-38
2023/04/09 11:56:59;;;;;;;31.50;26.50;;;14.30;99.90;;;;;;5054965;28;20059;-44
2023/04/09 11:59:25;;;;;;;27.98;24.95;;;14.40;99.90;;;;;;5035322;28;20041;-40
2023/04/09 12:01:51;;;;;;;30.52;26.42;;;14.60;99.90;;;;;;5054236;28;20098;-49
2023/04/09 12:04:20;;;;;;;39.08;30.08;;;14.60;99.90;;;;;;5039225;28;20052;-43
2023/04/09 12:06:47;;;;;;;29.10;26.00;;;14.70;99.90;;;;;;5071863;28;20044;-47
2023/04/09 12:09:13;;;;;;;26.98;24.17;;;14.60;99.90;;;;;;5035178;28;20060;-45
2023/04/09 12:11:42;;;;;;;27.52;24.58;;;14.60;99.90;;;;;;5057924;28;20055;-40
2023/04/09 12:14:17;;;;;;;28.63;23.40;;;14.50;99.90;;;;;;5050919;28;20101;-43
2023/04/09 12:16:43;;;;;;;28.27;25.20;;;14.50;99.90;;;;;;5031725;28;20604;-50
2023/04/09 12:19:11;;;;;;;28.40;24.92;;;14.50;99.90;;;;;;5050470;28;20040;-39
2023/04/09 12:21:49;;;;;;;32.00;25.77;;;14.50;99.90;;;;;;5053744;28;20048;-42
2023/04/09 12:24:20;;;;;;;28.17;25.08;;;14.60;99.90;;;;;;5056586;28;20087;-47
2023/04/09 12:26:47;;;;;;;27.27;24.42;;;14.70;99.90;;;;;;5052377;28;20048;-43
2023/04/09 12:29:14;;;;;;;28.15;24.83;;;14.70;99.90;;;;;;5034041;28;20139;-48
2023/04/09 12:31:41;;;;;;;28.27;25.27;;;14.70;99.90;;;;;;5051884;28;20048;-51
2023/04/09 12:34:06;;;;;;;28.63;25.52;;;14.50;99.90;;;;;;5051193;28;20502;-43
2023/04/09 12:36:32;;;;;;;28.23;25.13;;;14.40;99.90;;;;;;5053775;28;20302;-40
2023/04/09 12:38:58;;;;;;;28.13;25.13;;;14.40;99.90;;;;;;5050602;28;20484;-48